createdAt,value
2022-07-29T00:01:04.434Z,99462.78
2022-07-29T00:04:07.731Z,99471.75
2022-07-29T00:07:10.588Z,99457.69
2022-07-29T00:10:15.396Z,99451.13
2022-07-29T00:13:18.060Z,99470.66
2022-07-29T00:16:34.964Z,99469.34
2022-07-29T00:19:37.635Z,99472.72
2022-07-29T00:22:40.722Z,99443.97
2022-07-29T00:25:43.305Z,99443.56
2022-07-29T00:28:46.234Z,99454.94
2022-07-29T00:31:50.862Z,99457.19
2022-07-29T00:35:12.334Z,99444.13
2022-07-29T00:38:16.752Z,99446.91
2022-07-29T00:41:19.840Z,99453.72
2022-07-29T00:44:22.493Z,99429.94
2022-07-29T00:47:25.417Z,99443.19
2022-07-29T00:50:28.240Z,99448.19
2022-07-29T00:53:32.115Z,99448.00
2022-07-29T00:56:35.335Z,99449.47
2022-07-29T00:59:38.454Z,99440.28
2022-07-29T01:02:41.174Z,99436.50
2022-07-29T01:05:49.606Z,99430.78
2022-07-29T01:08:54.636Z,99446.41
2022-07-29T01:11:58.258Z,99460.41
2022-07-29T01:15:02.666Z,99455.53
2022-07-29T01:18:18.151Z,99451.44
2022-07-29T01:21:46.570Z,99451.34
2022-07-29T01:25:01.663Z,99443.34
2022-07-29T01:28:42.141Z,99454.09
2022-07-29T01:32:03.037Z,99453.69
2022-07-29T01:35:20.052Z,99427.25
2022-07-29T01:38:29.106Z,99455.13
2022-07-29T01:41:36.119Z,99450.75
2022-07-29T01:44:45.132Z,99454.63
2022-07-29T01:48:10.847Z,99424.28
2022-07-29T01:51:29.926Z,99445.03
2022-07-29T01:54:46.977Z,99441.94
2022-07-29T01:57:50.740Z,99427.72
2022-07-29T02:00:54.868Z,99430.00
2022-07-29T02:04:00.397Z,99432.44
2022-07-29T02:07:08.508Z,99440.31
2022-07-29T02:10:14.006Z,99438.56
2022-07-29T02:13:19.754Z,99432.03
2022-07-29T02:16:25.047Z,99421.84
2022-07-29T02:19:30.357Z,99425.22
2022-07-29T02:22:38.143Z,99409.78
2022-07-29T02:25:43.010Z,99425.22
2022-07-29T02:28:48.333Z,99438.81
2022-07-29T02:31:52.861Z,99427.56
2022-07-29T02:34:57.706Z,99429.50
2022-07-29T02:38:19.302Z,99419.81
2022-07-29T02:41:30.619Z,99434.91
2022-07-29T02:44:36.109Z,99437.87
2022-07-29T02:47:47.988Z,99437.34
2022-07-29T02:50:58.775Z,99438.13
2022-07-29T02:54:07.726Z,99414.91
2022-07-29T02:57:54.903Z,99434.19
2022-07-29T03:01:03.094Z,99432.00
2022-07-29T03:04:07.026Z,99424.88
2022-07-29T03:07:11.978Z,99437.81
2022-07-29T03:10:14.799Z,99431.47
2022-07-29T03:13:19.830Z,99437.22
2022-07-29T03:16:24.902Z,99436.94
2022-07-29T03:19:28.733Z,99422.59
2022-07-29T03:22:31.761Z,99432.62
2022-07-29T03:25:34.817Z,99428.69
2022-07-29T03:28:37.456Z,99440.31
2022-07-29T03:31:43.715Z,99442.00
2022-07-29T03:34:46.478Z,99425.66
2022-07-29T03:37:50.102Z,99443.25
2022-07-29T03:40:57.061Z,99431.84
2022-07-29T03:44:00.999Z,99444.94
2022-07-29T03:47:07.506Z,99447.91
2022-07-29T03:50:14.183Z,99450.03
2022-07-29T03:53:17.150Z,99433.56
2022-07-29T03:56:22.848Z,99451.06
2022-07-29T03:59:25.506Z,99448.12
2022-07-29T04:02:30.762Z,99442.13
2022-07-29T04:05:34.191Z,99435.91
2022-07-29T04:08:36.977Z,99445.53
2022-07-29T04:12:02.104Z,99451.06
2022-07-29T04:15:07.647Z,99452.22
2022-07-29T04:18:10.837Z,99441.12
2022-07-29T04:21:13.437Z,99458.06
2022-07-29T04:24:17.399Z,99455.62
2022-07-29T04:27:20.388Z,99444.53
2022-07-29T04:30:24.476Z,99450.22
2022-07-29T04:33:27.190Z,99435.22
2022-07-29T04:36:30.269Z,99452.75
2022-07-29T04:39:32.934Z,99453.63
2022-07-29T04:42:35.806Z,99444.00
2022-07-29T04:45:49.404Z,99439.06
2022-07-29T04:48:52.607Z,99441.03
2022-07-29T04:51:55.486Z,99460.22
2022-07-29T04:54:58.428Z,99451.34
2022-07-29T04:58:01.574Z,99463.38
2022-07-29T05:01:05.552Z,99465.47
2022-07-29T05:04:08.272Z,99464.88
2022-07-29T05:07:11.347Z,99467.37
2022-07-29T05:10:13.953Z,99464.25
2022-07-29T05:13:17.147Z,99465.22
2022-07-29T05:16:19.968Z,99468.91
2022-07-29T05:19:23.219Z,99457.84
2022-07-29T05:22:25.824Z,99463.38
2022-07-29T05:25:44.436Z,99472.28
2022-07-29T05:28:47.502Z,99483.16
2022-07-29T05:31:52.026Z,99462.28
2022-07-29T05:34:54.617Z,99475.56
2022-07-29T05:37:57.578Z,99474.81
2022-07-29T05:41:00.734Z,99473.16
2022-07-29T05:44:03.762Z,99477.00
2022-07-29T05:47:07.455Z,99467.84
2022-07-29T05:50:10.414Z,99481.88
2022-07-29T05:53:18.989Z,99485.97
2022-07-29T05:56:23.098Z,99478.34
2022-07-29T05:59:30.120Z,99468.69
2022-07-29T06:02:33.309Z,99481.16
2022-07-29T06:05:36.369Z,99484.44
2022-07-29T06:08:39.745Z,99494.50
2022-07-29T06:11:42.631Z,99485.22
2022-07-29T06:14:45.226Z,99475.87
2022-07-29T06:17:59.840Z,99477.50
2022-07-29T06:21:09.685Z,99486.41
2022-07-29T06:24:13.898Z,99484.00
2022-07-29T06:27:17.360Z,99480.31
2022-07-29T06:30:20.414Z,99483.03
2022-07-29T06:33:23.056Z,99487.34
2022-07-29T06:36:26.149Z,99495.03
2022-07-29T06:39:29.158Z,99486.19
2022-07-29T06:42:32.098Z,99473.09
2022-07-29T06:45:35.494Z,99469.75
2022-07-29T06:48:38.660Z,99482.91
2022-07-29T06:51:41.733Z,99478.69
2022-07-29T06:54:49.049Z,99484.91
2022-07-29T06:57:52.294Z,99481.84
2022-07-29T07:00:55.372Z,99490.00
2022-07-29T07:03:58.004Z,99474.75
2022-07-29T07:07:01.619Z,99474.44
2022-07-29T07:10:05.018Z,99467.13
2022-07-29T07:13:08.088Z,99454.34
2022-07-29T12:10:19.983Z,99347.63
2022-07-29T12:13:39.961Z,99347.63
2022-07-29T12:16:42.588Z,99345.00
2022-07-29T12:19:46.992Z,99337.87
2022-07-29T12:22:55.497Z,99338.50
2022-07-29T12:26:00.147Z,99331.53
2022-07-29T12:29:03.610Z,99331.63
2022-07-29T12:32:14.433Z,99313.97
2022-07-29T12:35:22.555Z,99318.03
2022-07-29T12:38:26.401Z,99317.59
2022-07-29T12:41:30.226Z,99309.16
2022-07-29T12:44:50.415Z,99322.41
2022-07-29T12:47:54.302Z,99320.69
2022-07-29T12:51:01.193Z,99309.47
2022-07-29T12:54:12.679Z,99314.97
2022-07-29T12:57:19.835Z,99305.31
2022-07-29T13:00:25.138Z,99306.22
2022-07-29T13:03:28.336Z,99299.25
2022-07-29T13:06:39.425Z,99299.28
2022-07-29T13:09:48.514Z,99283.47
2022-07-29T13:13:09.762Z,99286.75
2022-07-29T13:16:12.977Z,99274.25
2022-07-29T13:19:16.058Z,99277.19
2022-07-29T13:22:24.628Z,99268.50
2022-07-29T13:25:32.816Z,99263.09
2022-07-29T13:28:35.974Z,99257.69
2022-07-29T13:31:38.886Z,99260.19
2022-07-29T13:34:41.938Z,99248.91
2022-07-29T13:37:45.357Z,99253.03
2022-07-29T13:40:48.742Z,99243.28
2022-07-29T13:43:51.406Z,99237.22
2022-07-29T13:46:54.502Z,99238.44
2022-07-29T13:49:57.162Z,99234.88
2022-07-29T13:53:00.447Z,99237.34
2022-07-29T13:56:03.417Z,99229.63
2022-07-29T13:59:06.970Z,99240.53
2022-07-29T14:02:11.162Z,99237.34
2022-07-29T14:05:14.094Z,99227.97
2022-07-29T14:08:16.865Z,99221.59
2022-07-29T14:11:20.007Z,99227.97
2022-07-29T14:14:22.661Z,99209.25
2022-07-29T14:17:25.673Z,99219.00
2022-07-29T14:20:30.873Z,99221.38
2022-07-29T14:23:33.787Z,99220.16
2022-07-29T14:26:36.455Z,99222.19
2022-07-29T14:29:39.538Z,99215.25
2022-07-29T14:32:42.578Z,99211.19
2022-07-29T14:35:46.670Z,99211.69
2022-07-29T14:38:49.293Z,99212.12
2022-07-29T14:41:52.855Z,99215.34
2022-07-29T14:44:55.578Z,99210.50
2022-07-29T14:47:58.788Z,99210.13
2022-07-29T14:51:04.730Z,99210.00
2022-07-29T14:54:08.137Z,99202.69
2022-07-29T14:57:10.835Z,99203.97
2022-07-29T15:00:15.121Z,99196.22
2022-07-29T15:03:23.729Z,99202.63
2022-07-29T15:06:27.986Z,99196.31
2022-07-29T15:09:30.544Z,99189.97
2022-07-29T15:12:33.627Z,99181.94
2022-07-29T15:15:36.642Z,99191.53
2022-07-29T15:18:39.722Z,99185.84
2022-07-29T15:21:48.787Z,99179.00
2022-07-29T15:25:02.594Z,99181.03
2022-07-29T15:28:08.092Z,99170.50
2022-07-29T15:31:11.015Z,99162.13
2022-07-29T15:34:13.648Z,99166.56
2022-07-29T15:37:16.707Z,99165.06
2022-07-29T15:40:19.862Z,99163.47
2022-07-29T15:43:23.374Z,99149.38
2022-07-29T15:46:44.786Z,99158.62
2022-07-29T15:49:49.500Z,99140.47
2022-07-29T15:52:52.272Z,99151.78
2022-07-29T15:55:55.354Z,99154.63
2022-07-29T15:58:58.702Z,99144.25
2022-07-29T16:02:01.881Z,99138.25
2022-07-29T16:05:05.727Z,99135.84
2022-07-29T16:08:12.240Z,99140.72
2022-07-29T16:11:15.159Z,99131.50
2022-07-29T16:14:18.326Z,99129.03
2022-07-29T16:17:21.413Z,99128.75
2022-07-29T16:20:24.239Z,99137.59
2022-07-29T16:23:27.181Z,99139.25
2022-07-29T16:26:29.750Z,99136.47
2022-07-29T16:29:32.696Z,99132.84
2022-07-29T16:32:35.803Z,99127.69
2022-07-29T16:35:40.460Z,99128.50
2022-07-29T16:38:47.275Z,99124.09
2022-07-29T16:41:50.678Z,99130.19
2022-07-29T16:44:53.389Z,99116.53
2022-07-29T16:48:00.349Z,99119.38
2022-07-29T16:51:03.961Z,99121.78
2022-07-29T16:54:08.702Z,99122.22
2022-07-29T16:57:11.914Z,99129.50
2022-07-29T17:00:16.951Z,99119.03
2022-07-29T17:03:19.642Z,99121.81
2022-07-29T17:06:22.735Z,99128.28
2022-07-29T17:09:25.678Z,99125.06
2022-07-29T17:12:28.786Z,99121.41
2022-07-29T17:15:31.605Z,99116.19
2022-07-29T17:18:39.620Z,99117.78
2022-07-29T17:21:49.023Z,99110.94
2022-07-29T17:24:52.473Z,99112.50
2022-07-29T17:28:00.559Z,99104.38
2022-07-29T17:31:04.019Z,99115.19
2022-07-29T17:34:07.521Z,99123.13
2022-07-29T17:37:12.275Z,99117.03
2022-07-29T17:40:14.938Z,99110.53
2022-07-29T17:43:18.006Z,99114.44
2022-07-29T17:46:22.319Z,99113.88
2022-07-29T17:49:25.610Z,99120.66
2022-07-29T17:52:28.394Z,99126.97
2022-07-29T17:55:31.380Z,99125.66
2022-07-29T17:58:34.718Z,99123.09
2022-07-29T18:01:40.156Z,99127.28
2022-07-29T18:04:43.553Z,99131.50
2022-07-29T18:07:46.490Z,99132.50
2022-07-29T18:10:50.012Z,99136.69
2022-07-29T18:13:52.777Z,99123.47
2022-07-29T18:16:56.688Z,99131.72
2022-07-29T18:20:00.546Z,99132.56
2022-07-29T18:23:04.382Z,99129.06
2022-07-29T18:26:07.086Z,99145.25
2022-07-29T18:29:10.505Z,99129.22
2022-07-29T18:32:13.577Z,99143.38
2022-07-29T18:35:17.509Z,99155.81
2022-07-29T18:38:21.966Z,99143.00
2022-07-29T18:41:25.929Z,99154.69
2022-07-29T18:44:29.163Z,99153.91
2022-07-29T18:47:32.585Z,99163.63
2022-07-29T18:50:36.353Z,99153.31
2022-07-29T18:53:39.546Z,99154.16
2022-07-29T18:56:42.241Z,99157.88
2022-07-29T18:59:45.383Z,99159.59
2022-07-29T19:02:48.121Z,99167.69
2022-07-29T19:05:51.593Z,99156.16
2022-07-29T19:08:54.604Z,99165.25
2022-07-29T19:12:03.637Z,99165.72
2022-07-29T19:15:08.228Z,99168.69
2022-07-29T19:18:13.288Z,99169.31
2022-07-29T19:21:15.952Z,99173.69
2022-07-29T19:24:20.359Z,99168.34
2022-07-29T19:27:23.224Z,99165.25
2022-07-29T19:30:26.433Z,99174.81
2022-07-29T19:33:29.650Z,99183.78
2022-07-29T19:36:32.716Z,99170.91
2022-07-29T19:39:35.780Z,99180.66
2022-07-29T19:42:38.812Z,99180.16
2022-07-29T19:45:41.659Z,99178.09
2022-07-29T19:48:45.262Z,99171.50
2022-07-29T19:51:48.058Z,99177.91
2022-07-29T19:54:50.977Z,99179.81
2022-07-29T19:57:53.839Z,99170.84
2022-07-29T20:00:56.898Z,99174.75
2022-07-29T20:03:59.974Z,99175.94
2022-07-29T20:07:02.991Z,99170.25
2022-07-29T20:10:08.093Z,99160.19
2022-07-29T20:13:10.958Z,99164.16
2022-07-29T20:16:13.919Z,99180.34
2022-07-29T20:19:17.371Z,99188.34
2022-07-29T20:22:21.556Z,99171.88
2022-07-29T20:25:24.270Z,99178.72
2022-07-29T20:28:27.691Z,99184.25
2022-07-29T20:31:30.626Z,99184.97
2022-07-29T20:34:33.664Z,99178.97
2022-07-29T20:37:56.003Z,99161.91
2022-07-29T20:40:59.264Z,99166.97
2022-07-29T20:44:03.151Z,99179.56
2022-07-29T20:47:06.190Z,99179.56
2022-07-29T20:50:10.144Z,99180.88
2022-07-29T20:53:13.733Z,99185.16
2022-07-29T20:56:16.510Z,99181.41
2022-07-29T20:59:19.601Z,99179.44
2022-07-29T21:02:22.255Z,99183.69
2022-07-29T21:05:25.312Z,99178.31
2022-07-29T21:08:28.075Z,99163.22
2022-07-29T21:11:42.851Z,99186.03
2022-07-29T21:14:48.135Z,99181.50
2022-07-29T21:17:52.748Z,99168.63
2022-07-29T21:20:55.875Z,99185.84
2022-07-29T21:23:58.946Z,99186.66
2022-07-29T21:27:21.692Z,99179.63
2022-07-29T21:30:24.950Z,99184.87
2022-07-29T21:33:31.861Z,99201.16
2022-07-29T21:36:50.146Z,99200.06
2022-07-29T21:39:52.808Z,99196.47
2022-07-29T21:42:55.820Z,99198.38
2022-07-29T21:46:00.019Z,99204.56
2022-07-29T21:49:03.044Z,99206.94
2022-07-29T21:52:06.105Z,99201.72
2022-07-29T21:55:11.601Z,99201.72
2022-07-29T21:58:15.637Z,99206.31
2022-07-29T22:01:19.411Z,99207.13
2022-07-29T22:04:22.507Z,99199.00
2022-07-29T22:07:25.238Z,99200.63
2022-07-29T22:10:48.161Z,99193.84
2022-07-29T22:13:50.769Z,99199.78
2022-07-29T22:16:58.016Z,99174.09
2022-07-29T22:20:01.109Z,99187.59
2022-07-29T22:23:04.042Z,99176.25
2022-07-29T22:26:06.981Z,99185.16
2022-07-29T22:29:17.646Z,99188.31
2022-07-29T22:32:20.352Z,99174.88
2022-07-29T22:35:23.263Z,99178.81
2022-07-29T22:38:25.915Z,99174.75
2022-07-29T22:41:28.913Z,99164.06
2022-07-29T22:44:31.795Z,99169.53
2022-07-29T22:47:46.595Z,99174.53
2022-07-29T22:50:51.688Z,99166.78
2022-07-29T22:53:54.585Z,99171.09
2022-07-29T22:56:57.432Z,99167.81
2022-07-29T23:00:03.713Z,99156.56
2022-07-29T23:03:06.359Z,99151.97
2022-07-29T23:06:09.612Z,99160.44
2022-07-29T23:09:12.278Z,99165.09
2022-07-29T23:12:15.265Z,99167.63
2022-07-29T23:15:18.229Z,99185.81
2022-07-29T23:18:21.283Z,99165.81
2022-07-29T23:21:24.598Z,99165.88
2022-07-29T23:24:27.555Z,99160.22
2022-07-29T23:27:30.298Z,99163.13
2022-07-29T23:30:33.343Z,99164.88
2022-07-29T23:33:36.006Z,99157.78
2022-07-29T23:36:39.033Z,99149.47
2022-07-29T23:39:41.623Z,99143.09
2022-07-29T23:42:46.082Z,99142.78
2022-07-29T23:45:49.011Z,99131.97
2022-07-29T23:48:52.380Z,99134.38
2022-07-29T23:51:55.056Z,99124.06
2022-07-29T23:55:38.255Z,99116.06
2022-07-29T23:58:20.835Z,99109.53
